Terminal Aerodrome Forecast
Issued by NWS Charleston, WV

Current Version | Previous Version | Text Only | Print | Product List | Glossary Off
Versions: 1 2 3 4 5 6 7 8 9 10 11 12 13 14 15 16 17 18 19 20 21

000
FTUS41 KRLX 291100
TAFEKN
TAF
KEKN 291135Z 2912/3012 VRB03KT 1/4SM FG VV001
      TEMPO 2912/2913 4SM BR BKN002
     FM291300 VRB03KT 4SM BR BKN002
     FM291330 VRB03KT P6SM SCT002
     FM291700 VRB03KT P6SM SCT045
     FM301000 17004KT P6SM BKN100=

USA.gov is the U.S. government's official web portal to all federal, state and local government web resources and services.